Weather History for Silver City, NM

Change the Weather History Date:

Thursday, October 17, 2013

  Actual Average (KDMN) Record (KDMN)
Temperature  
Mean Temperature 50 °F 61 °F  
Max Temperature 68 °F 77 °F 88 °F (1952)
Min Temperature 32 °F 45 °F 32 °F (1966)
Degree Days  
Heating Degree Days 15    
Moisture  
Dew Point 14 °F    
Average Humidity 27    
Maximum Humidity 55    
Minimum Humidity 9    
Precipitation  
Precipitation 0.00 in 0.04 in 0.38 in (1960)
Month to date precipitation 0.68  
Year to date precipitation 9.57  
Sea Level Pressure  
Sea Level Pressure 30.12 in    
Wind  
Wind Speed 9 mph (NW)    
Max Wind Speed 15 mph    
Max Gust Speed 21 mph    
Visibility 10 miles    
Events Thunderstorm    
T = Trace of Precipitation, MM = Missing Value Source: NWS Daily Summary

Daily Weather History Graph

Daily Weather History Graph

Search for Another Location

Airport:

Trip Planner

Search our weather history database for the weather conditions in past years. The results will help you decide how hot, cold, wet, or windy it might be!

Date:

Astronomy

Oct. 17, 2013 Rise Set
Actual Time 7:18 AM MDT 6:36 PM MDT
Civil Twilight 6:53 AM MDT 7:01 PM MDT
Nautical Twilight 6:24 AM MDT 7:30 PM MDT
Astronomical Twilight 5:56 AM MDT 7:58 PM MDT
Moon 5:51 PM MDT (10/17) 5:57 AM MDT (10/17)
Length of Visible Light 12h 08m
Length of Day
11h 18m
Waxing Gibbous, 98% of the Moon is Illuminated
Oct 17
Waxing Gibbous
Oct 18
Full
Oct 26
Last Quarter
Nov 3
New
Nov 9
First Quarter

Hourly Weather History & Observations

Time (MDT) Temp. Windchill Dew Point Humidity Pressure Visibility Wind Dir Wind Speed Gust Speed Precip Events Conditions
12:15 AM 41.0 °F 34.3 °F 15.8 °F 36% 30.17 in 10.0 mi North 11.5 mph - N/A   Clear
12:35 AM 39.2 °F 33.0 °F 15.8 °F 39% 30.16 in 10.0 mi NNW 9.2 mph - N/A   Clear
12:55 AM 39.2 °F 32.0 °F 17.6 °F 42% 30.16 in 10.0 mi North 11.5 mph - N/A   Clear
1:15 AM 41.0 °F 34.7 °F 17.6 °F 39% 30.16 in 10.0 mi North 10.4 mph - N/A   Clear
1:35 AM 39.2 °F 33.0 °F 17.6 °F 42% 30.16 in 10.0 mi NNW 9.2 mph - N/A   Clear
1:55 AM 37.4 °F 30.3 °F 17.6 °F 45% 30.16 in 10.0 mi NNW 10.4 mph - N/A   Clear
2:15 AM 37.4 °F 29.8 °F 17.6 °F 45% 30.16 in 10.0 mi NNW 11.5 mph - N/A   Clear
2:35 AM 39.2 °F 32.0 °F 19.4 °F 45% 30.15 in 10.0 mi NNW 11.5 mph - N/A   Clear
2:55 AM 37.4 °F 30.8 °F 17.6 °F 45% 30.15 in 10.0 mi North 9.2 mph - N/A   Clear
3:15 AM 39.2 °F 35.9 °F 17.6 °F 42% 30.15 in 10.0 mi NNW 4.6 mph - N/A   Clear
3:35 AM 37.4 °F 29.8 °F 17.6 °F 45% 30.15 in 10.0 mi NNW 11.5 mph - N/A   Clear
3:55 AM 39.2 °F 33.0 °F 17.6 °F 42% 30.14 in 10.0 mi North 9.2 mph - N/A   Clear
4:15 AM 37.4 °F 32.1 °F 17.6 °F 45% 30.14 in 10.0 mi North 6.9 mph - N/A   Clear
4:35 AM 35.6 °F 29.9 °F 17.6 °F 48% 30.15 in 10.0 mi North 6.9 mph - N/A   Clear
4:55 AM 37.4 °F 30.8 °F 19.4 °F 48% 30.15 in 10.0 mi North 9.2 mph - N/A   Clear
5:15 AM 35.6 °F 28.0 °F 19.4 °F 52% 30.15 in 10.0 mi North 10.4 mph - N/A   Clear
5:35 AM 35.6 °F 28.0 °F 17.6 °F 48% 30.15 in 10.0 mi North 10.4 mph - N/A   Clear
5:55 AM 37.4 °F 29.8 °F 17.6 °F 45% 30.16 in 10.0 mi North 11.5 mph - N/A   Clear
6:15 AM 35.6 °F 29.9 °F 17.6 °F 48% 30.16 in 10.0 mi North 6.9 mph - N/A   Clear
6:35 AM 35.6 °F 29.2 °F 17.6 °F 48% 30.16 in 10.0 mi North 8.1 mph - N/A   Clear
6:55 AM 33.8 °F 28.6 °F 17.6 °F 52% 30.17 in 10.0 mi NNE 5.8 mph - N/A   Clear
7:35 AM 32.0 °F 23.6 °F 17.6 °F 55% 30.17 in 10.0 mi North 10.4 mph - N/A   Clear
7:55 AM 37.4 °F 32.8 °F 17.6 °F 45% 30.17 in 10.0 mi North 5.8 mph - N/A   Clear
8:15 AM 41.0 °F 38.0 °F 17.6 °F 39% 30.18 in 10.0 mi North 4.6 mph - N/A   Clear
8:35 AM 46.4 °F 44.3 °F 19.4 °F 34% 30.19 in 10.0 mi North 4.6 mph - N/A Thunderstorm Clear
8:55 AM 50.0 °F - 19.4 °F 30% 30.20 in 10.0 mi Calm Calm - N/A   Clear
9:15 AM 53.6 °F - 17.6 °F 24% 30.20 in 10.0 mi Calm Calm - N/A   Clear
9:35 AM 55.4 °F - 17.6 °F 23% 30.20 in 10.0 mi Calm Calm - N/A   Clear
9:55 AM 57.2 °F - 17.6 °F 21% 30.20 in 10.0 mi Calm Calm - N/A   Clear
10:15 AM 57.2 °F - 17.6 °F 21% 30.19 in 10.0 mi Calm Calm - N/A   Clear
10:35 AM 59.0 °F - 17.6 °F 20% 30.19 in 10.0 mi Calm Calm - N/A   Clear
10:55 AM 59.0 °F - 17.6 °F 20% 30.19 in 10.0 mi South 3.5 mph - N/A   Clear
11:15 AM 62.6 °F - 15.8 °F 16% 30.18 in 10.0 mi SSW 3.5 mph - N/A   Clear
11:35 AM 62.6 °F - 15.8 °F 16% 30.18 in 10.0 mi SSW 3.5 mph - N/A   Clear
11:55 AM 62.6 °F - 15.8 °F 16% 30.17 in 10.0 mi South 4.6 mph - N/A   Clear
12:15 PM 64.4 °F - 15.8 °F 15% 30.16 in 10.0 mi WSW 5.8 mph - N/A   Clear
12:35 PM 64.4 °F - 15.8 °F 15% 30.14 in 10.0 mi SSW 5.8 mph - N/A   Clear
12:55 PM 64.4 °F - 14.0 °F 14% 30.13 in 10.0 mi SSW 11.5 mph - N/A   Clear
1:15 PM 66.2 °F - 14.0 °F 13% 30.12 in 10.0 mi West 5.8 mph - N/A   Clear
1:35 PM 66.2 °F - 14.0 °F 13% 30.11 in 10.0 mi West 12.7 mph 19.6 mph N/A   Clear
1:55 PM 66.2 °F - 14.0 °F 13% 30.10 in 10.0 mi West 3.5 mph - N/A   Clear
2:15 PM 68.0 °F - 10.4 °F 11% 30.09 in 10.0 mi NW 13.8 mph 17.3 mph N/A   Clear
2:35 PM 68.0 °F - 8.6 °F 10% 30.08 in 10.0 mi West 6.9 mph - N/A   Clear
2:55 PM 68.0 °F - 8.6 °F 10% 30.07 in 10.0 mi WNW 6.9 mph 17.3 mph N/A   Clear
3:15 PM 68.0 °F - 8.6 °F 10% 30.06 in 10.0 mi West 11.5 mph 17.3 mph N/A   Clear
3:35 PM 68.0 °F - 8.6 °F 10% 30.06 in 10.0 mi West 10.4 mph 16.1 mph N/A   Clear
3:55 PM 68.0 °F - 8.6 °F 10% 30.05 in 10.0 mi West 12.7 mph 19.6 mph N/A   Clear
4:15 PM 68.0 °F - 8.6 °F 10% 30.05 in 10.0 mi West 12.7 mph 17.3 mph N/A   Clear
4:35 PM 68.0 °F - 8.6 °F 10% 30.05 in 10.0 mi West 11.5 mph 20.7 mph N/A   Clear
4:55 PM 68.0 °F - 6.8 °F 9% 30.05 in 10.0 mi West 10.4 mph 17.3 mph N/A   Clear
5:15 PM 66.2 °F - 6.8 °F 10% 30.04 in 10.0 mi West 13.8 mph - N/A   Clear
5:35 PM 66.2 °F - 6.8 °F 10% 30.05 in 10.0 mi West 15.0 mph 18.4 mph N/A   Clear
5:55 PM 66.2 °F - 8.6 °F 11% 30.05 in 10.0 mi West 15.0 mph 19.6 mph N/A   Clear
6:15 PM 64.4 °F - 8.6 °F 11% 30.05 in 10.0 mi West 12.7 mph - N/A   Clear
6:35 PM 62.6 °F - 10.4 °F 13% 30.06 in 10.0 mi West 9.2 mph - N/A   Clear
6:55 PM 55.4 °F - 10.4 °F 17% 30.05 in 10.0 mi WNW 10.4 mph - N/A   Clear
7:15 PM 51.8 °F - 8.6 °F 18% 30.06 in 10.0 mi WNW 9.2 mph - N/A   Clear
7:35 PM 51.8 °F - 10.4 °F 19% 30.06 in 10.0 mi WNW 11.5 mph - N/A   Clear
7:55 PM 50.0 °F - 10.4 °F 20% 30.06 in 10.0 mi WNW 12.7 mph - N/A   Clear
8:15 PM 48.2 °F - 10.4 °F 22% 30.07 in 10.0 mi NW 10.4 mph - N/A   Clear
8:35 PM 48.2 °F - 8.6 °F 20% 30.07 in 10.0 mi NW 11.5 mph - N/A   Clear
8:55 PM 46.4 °F 41.1 °F 10.4 °F 23% 30.07 in 10.0 mi NNW 11.5 mph - N/A   Clear
9:15 PM 44.6 °F 38.8 °F 10.4 °F 25% 30.07 in 10.0 mi NNW 11.5 mph - N/A   Clear
9:35 PM 44.6 °F 39.7 °F 10.4 °F 25% 30.07 in 10.0 mi NNW 9.2 mph - N/A   Clear
9:55 PM 44.6 °F 39.2 °F 10.4 °F 25% 30.07 in 10.0 mi NNW 10.4 mph - N/A   Clear
10:15 PM 41.0 °F 34.7 °F 10.4 °F 29% 30.07 in 10.0 mi NNW 10.4 mph - N/A   Clear
10:35 PM 41.0 °F 34.7 °F 10.4 °F 29% 30.07 in 10.0 mi NW 10.4 mph - N/A   Clear
10:55 PM 41.0 °F 35.2 °F 12.2 °F 31% 30.07 in 10.0 mi North 9.2 mph - N/A   Clear
11:15 PM 44.6 °F 38.4 °F 12.2 °F 27% 30.06 in 10.0 mi North 12.7 mph - N/A   Clear
11:35 PM 44.6 °F 38.8 °F 10.4 °F 25% 30.06 in 10.0 mi North 11.5 mph - N/A   Clear
11:55 PM 44.6 °F 38.4 °F 10.4 °F 25% 30.05 in 10.0 mi North 12.7 mph - N/A   Clear